createdAt,value
2022-07-26T00:00:23.703Z,25.32
2022-07-26T00:02:50.065Z,25.39
2022-07-26T00:05:03.145Z,25.27
2022-07-26T00:07:16.220Z,25.18
2022-07-26T00:09:29.188Z,25.13
2022-07-26T00:11:42.356Z,25.15
2022-07-26T00:13:55.516Z,25.03
2022-07-26T00:16:10.277Z,24.88
2022-07-26T00:18:23.906Z,24.87
2022-07-26T00:20:38.086Z,24.98
2022-07-26T00:22:51.993Z,25.07
2022-07-26T00:25:05.175Z,24.92
2022-07-26T00:27:18.580Z,24.77
2022-07-26T00:29:31.577Z,24.65
2022-07-26T00:31:44.858Z,24.55
2022-07-26T00:33:57.936Z,24.56
2022-07-26T00:36:12.078Z,24.57
2022-07-26T00:38:25.135Z,24.51
2022-07-26T00:40:38.306Z,24.42
2022-07-26T00:42:51.398Z,24.31
2022-07-26T00:45:04.494Z,24.28
2022-07-26T00:47:18.075Z,24.29
2022-07-26T00:49:31.020Z,24.18
2022-07-26T00:51:46.462Z,23.92
2022-07-26T00:53:59.784Z,23.73
2022-07-26T00:56:13.196Z,23.57
2022-07-26T00:58:26.202Z,23.55
2022-07-26T01:00:39.384Z,23.55
2022-07-26T01:02:53.257Z,23.47
2022-07-26T01:05:06.777Z,23.38
2022-07-26T01:07:20.110Z,23.30
2022-07-26T01:09:33.514Z,23.30
2022-07-26T01:11:47.129Z,23.44
2022-07-26T01:14:00.155Z,23.54
2022-07-26T01:16:13.874Z,23.67
2022-07-26T01:18:26.984Z,23.83
2022-07-26T01:20:40.090Z,23.95
2022-07-26T01:22:53.541Z,24.01
2022-07-26T01:25:06.800Z,23.78
2022-07-26T01:27:19.911Z,23.62
2022-07-26T01:29:35.409Z,23.49
2022-07-26T01:31:49.509Z,23.30
2022-07-26T01:34:02.759Z,23.03
2022-07-26T01:36:16.066Z,22.77
2022-07-26T01:38:29.071Z,22.53
2022-07-26T01:40:42.001Z,22.31
2022-07-26T01:42:55.016Z,21.97
2022-07-26T01:45:08.330Z,21.61
2022-07-26T01:47:21.437Z,21.20
2022-07-26T01:49:34.795Z,20.89
2022-07-26T01:51:47.800Z,20.72
2022-07-26T01:54:00.860Z,20.52
2022-07-26T01:56:14.473Z,20.37
2022-07-26T01:58:27.781Z,20.26
2022-07-26T02:00:40.937Z,20.20
2022-07-26T02:02:54.048Z,20.19
2022-07-26T02:05:07.303Z,20.19
2022-07-26T02:07:20.385Z,20.19
2022-07-26T02:09:39.600Z,20.19
2022-07-26T02:11:52.991Z,20.17
2022-07-26T02:14:06.536Z,20.16
2022-07-26T02:16:21.064Z,20.04
2022-07-26T02:18:35.107Z,19.95
2022-07-26T02:20:48.112Z,19.85
2022-07-26T02:23:01.219Z,19.69
2022-07-26T02:25:15.161Z,19.52
2022-07-26T02:27:28.227Z,19.38
2022-07-26T02:29:41.301Z,19.33
2022-07-26T02:31:55.095Z,19.35
2022-07-26T02:34:08.327Z,19.39
2022-07-26T02:36:21.618Z,19.38
2022-07-26T02:38:35.888Z,19.30
2022-07-26T02:40:51.652Z,19.24
2022-07-26T02:43:04.740Z,19.29
2022-07-26T02:45:18.077Z,19.37
2022-07-26T02:47:31.723Z,19.38
2022-07-26T02:49:44.885Z,19.40
2022-07-26T02:51:57.863Z,19.41
2022-07-26T02:54:11.646Z,19.43
2022-07-26T02:56:25.452Z,19.44
2022-07-26T02:58:38.493Z,19.40
2022-07-26T03:00:51.665Z,19.29
2022-07-26T03:03:04.700Z,19.23
2022-07-26T03:05:18.620Z,19.15
2022-07-26T03:07:31.849Z,19.03
2022-07-26T03:09:44.912Z,18.98
2022-07-26T03:11:58.379Z,18.87
2022-07-26T03:14:11.948Z,18.77
2022-07-26T03:16:29.386Z,18.71
2022-07-26T03:18:42.702Z,18.68
2022-07-26T03:20:56.524Z,18.63
2022-07-26T03:23:09.597Z,18.47
2022-07-26T03:25:22.740Z,18.26
2022-07-26T03:27:35.723Z,18.11
2022-07-26T03:29:48.759Z,18.02
2022-07-26T03:32:01.849Z,17.95
2022-07-26T03:34:14.938Z,17.88
2022-07-26T03:36:28.541Z,17.82
2022-07-26T03:38:41.748Z,17.78
2022-07-26T03:40:54.832Z,17.78
2022-07-26T03:43:08.032Z,17.83
2022-07-26T03:45:21.836Z,17.88
2022-07-26T03:47:34.846Z,17.90
2022-07-26T03:49:47.823Z,17.88
2022-07-26T03:52:00.853Z,17.87
2022-07-26T03:54:14.855Z,17.84
2022-07-26T03:56:34.820Z,17.82
2022-07-26T03:58:47.883Z,17.81
2022-07-26T04:01:01.202Z,17.82
2022-07-26T04:03:14.423Z,17.82
2022-07-26T04:05:27.519Z,17.82
2022-07-26T04:07:51.511Z,17.79
2022-07-26T04:10:05.907Z,17.77
2022-07-26T04:12:19.125Z,17.77
2022-07-26T04:14:32.607Z,17.76
2022-07-26T04:16:45.737Z,17.74
2022-07-26T04:18:58.927Z,17.75
2022-07-26T04:21:12.371Z,17.76
2022-07-26T04:23:25.515Z,17.77
2022-07-26T04:25:41.424Z,17.74
2022-07-26T04:27:54.742Z,17.71
2022-07-26T04:30:14.034Z,17.69
2022-07-26T04:32:44.228Z,17.65
2022-07-26T04:35:00.638Z,17.64
2022-07-26T04:37:13.670Z,17.65
2022-07-26T04:39:27.004Z,17.66
2022-07-26T04:41:40.048Z,17.68
2022-07-26T04:43:53.132Z,17.68
2022-07-26T04:46:06.719Z,17.66
2022-07-26T04:48:20.252Z,17.67
2022-07-26T04:50:33.388Z,17.68
2022-07-26T04:52:46.459Z,17.70
2022-07-26T04:55:00.093Z,17.72
2022-07-26T04:57:13.132Z,17.74
2022-07-26T04:59:26.148Z,17.77
2022-07-26T05:01:39.248Z,17.79
2022-07-26T05:03:52.269Z,17.74
2022-07-26T05:06:05.422Z,17.66
2022-07-26T05:08:20.942Z,17.54
2022-07-26T05:10:37.635Z,17.41
2022-07-26T05:12:51.620Z,17.31
2022-07-26T05:15:04.738Z,17.23
2022-07-26T05:17:18.110Z,17.19
2022-07-26T05:19:33.300Z,17.13
2022-07-26T05:21:46.429Z,17.06
2022-07-26T05:23:59.651Z,16.98
2022-07-26T05:26:14.238Z,16.92
2022-07-26T05:28:27.395Z,16.89
2022-07-26T05:30:40.453Z,16.85
2022-07-26T05:32:53.709Z,16.80
2022-07-26T05:35:06.768Z,16.73
2022-07-26T05:37:19.811Z,16.67
2022-07-26T05:39:33.504Z,16.65
2022-07-26T05:41:46.533Z,16.58
2022-07-26T05:44:00.162Z,16.46
2022-07-26T05:46:13.604Z,16.34
2022-07-26T05:48:26.779Z,16.31
2022-07-26T05:50:40.027Z,16.28
2022-07-26T05:52:53.030Z,16.29
2022-07-26T05:55:06.156Z,16.31
2022-07-26T05:57:19.096Z,16.33
2022-07-26T05:59:32.363Z,16.35
2022-07-26T06:01:45.431Z,16.36
2022-07-26T06:03:58.605Z,16.35
2022-07-26T06:06:12.665Z,16.30
2022-07-26T06:08:26.813Z,16.27
2022-07-26T06:10:39.851Z,16.22
2022-07-26T06:12:53.150Z,16.16
2022-07-26T06:15:15.380Z,16.15
2022-07-26T06:17:31.248Z,16.16
2022-07-26T06:19:47.514Z,16.15
2022-07-26T06:22:00.909Z,16.18
2022-07-26T06:24:14.468Z,16.21
2022-07-26T06:26:27.638Z,16.24
2022-07-26T06:28:41.111Z,16.27
2022-07-26T06:30:54.162Z,16.30
2022-07-26T06:33:07.631Z,16.31
2022-07-26T06:35:21.989Z,16.33
2022-07-26T06:37:35.107Z,16.34
2022-07-26T06:39:50.366Z,16.36
2022-07-26T06:42:03.434Z,16.37
2022-07-26T06:44:16.514Z,16.37
2022-07-26T06:46:29.650Z,16.28
2022-07-26T06:48:47.454Z,16.10
2022-07-26T06:51:06.509Z,15.86
2022-07-26T06:53:19.568Z,15.67
2022-07-26T06:55:32.643Z,15.58
2022-07-26T06:57:50.392Z,15.52
2022-07-26T07:00:03.817Z,15.47
2022-07-26T07:02:16.883Z,15.46
2022-07-26T07:04:30.141Z,15.43
2022-07-26T07:06:43.204Z,15.42
2022-07-26T07:08:58.517Z,15.43
2022-07-26T07:11:12.507Z,15.42
2022-07-26T07:13:26.336Z,15.39
2022-07-26T07:15:39.546Z,15.41
2022-07-26T07:17:52.859Z,15.41
2022-07-26T07:20:06.863Z,15.42
2022-07-26T07:22:19.925Z,15.43
2022-07-26T07:24:32.946Z,15.42
2022-07-26T07:26:46.145Z,15.38
2022-07-26T07:28:59.072Z,15.31
2022-07-26T07:31:17.450Z,15.29
2022-07-26T07:33:36.745Z,15.28
2022-07-26T07:36:05.382Z,15.27
2022-07-26T07:38:18.399Z,15.25
2022-07-26T07:40:32.230Z,15.26
2022-07-26T07:42:45.326Z,15.27
2022-07-26T07:44:58.373Z,15.27
2022-07-26T07:47:11.981Z,15.28
2022-07-26T07:49:25.194Z,15.28
2022-07-26T07:51:38.350Z,15.30
2022-07-26T07:53:56.762Z,15.30
2022-07-26T07:56:11.421Z,15.29
2022-07-26T07:58:28.146Z,15.29
2022-07-26T08:00:41.858Z,15.28
2022-07-26T08:02:54.894Z,15.27
2022-07-26T08:05:14.194Z,15.26
2022-07-26T08:07:32.901Z,15.23
2022-07-26T08:09:49.489Z,15.20
2022-07-26T08:12:02.449Z,15.16
2022-07-26T08:14:15.577Z,15.13
2022-07-26T08:16:31.183Z,15.11
2022-07-26T08:18:56.266Z,15.10
2022-07-26T08:21:10.971Z,15.08
2022-07-26T08:23:26.354Z,15.06
2022-07-26T08:25:50.105Z,15.03
2022-07-26T08:28:15.474Z,15.02
2022-07-26T08:30:42.274Z,14.98
2022-07-26T08:32:55.309Z,14.93
2022-07-26T08:35:17.388Z,14.91
2022-07-26T08:37:32.559Z,14.89
2022-07-26T08:39:45.548Z,14.86
2022-07-26T08:41:58.567Z,14.84
2022-07-26T08:44:15.687Z,14.84
2022-07-26T08:46:29.673Z,14.84
2022-07-26T08:48:42.673Z,14.84
2022-07-26T08:50:56.391Z,14.85
2022-07-26T08:53:10.543Z,14.85
2022-07-26T08:55:25.324Z,14.84
2022-07-26T08:57:38.387Z,14.83
2022-07-26T09:00:11.651Z,14.83
2022-07-26T09:02:25.105Z,14.84
2022-07-26T09:04:44.521Z,14.86
2022-07-26T09:07:07.393Z,14.90
2022-07-26T09:09:20.397Z,14.92
2022-07-26T09:11:37.891Z,14.94
2022-07-26T09:13:59.115Z,14.97
2022-07-26T09:16:18.583Z,14.99
2022-07-26T09:18:35.697Z,15.01
2022-07-26T09:20:53.042Z,15.02
2022-07-26T09:23:08.531Z,15.03
2022-07-26T09:25:32.278Z,15.05
2022-07-26T09:27:45.325Z,15.08
2022-07-26T09:29:59.063Z,15.09
2022-07-26T09:32:23.067Z,15.11
2022-07-26T09:34:36.659Z,15.13
2022-07-26T09:36:58.868Z,15.13
2022-07-26T09:39:12.397Z,15.14
2022-07-26T09:41:27.910Z,15.14
2022-07-26T09:43:44.889Z,15.14
2022-07-26T09:46:09.239Z,15.14
2022-07-26T09:48:59.223Z,15.14
2022-07-26T09:51:06.135Z,15.15
2022-07-26T09:53:19.364Z,15.16
2022-07-26T09:55:42.379Z,15.15
2022-07-26T09:57:58.591Z,15.15
2022-07-26T10:00:14.062Z,15.15
2022-07-26T10:02:27.222Z,15.16
2022-07-26T10:04:40.554Z,15.16
2022-07-26T10:06:53.750Z,15.14
2022-07-26T10:09:07.554Z,15.09
2022-07-26T10:11:22.307Z,15.02
2022-07-26T10:13:35.662Z,14.98
2022-07-26T10:15:50.724Z,14.96
2022-07-26T10:18:03.953Z,14.95
2022-07-26T10:20:51.353Z,14.95
2022-07-26T10:23:04.517Z,14.96
2022-07-26T10:25:51.951Z,14.96
2022-07-26T10:28:11.978Z,14.95
2022-07-26T10:30:35.562Z,14.95
2022-07-26T10:33:00.847Z,14.93
2022-07-26T10:35:35.735Z,14.92
2022-07-26T10:38:04.669Z,14.89
2022-07-26T10:40:31.439Z,14.85
2022-07-26T10:42:51.441Z,14.81
2022-07-26T10:45:23.204Z,14.77
2022-07-26T10:47:36.218Z,14.75
2022-07-26T10:50:02.500Z,14.71
2022-07-26T10:52:19.780Z,14.69
2022-07-26T10:54:33.180Z,14.68
2022-07-26T10:56:46.690Z,14.69
2022-07-26T10:59:00.235Z,14.70
2022-07-26T11:01:13.347Z,14.71
2022-07-26T11:03:26.606Z,14.71
2022-07-26T11:05:39.740Z,14.72
2022-07-26T11:08:01.236Z,14.73
2022-07-26T11:10:15.082Z,14.73
2022-07-26T11:12:28.498Z,14.73
2022-07-26T11:14:45.035Z,14.72
2022-07-26T11:17:01.154Z,14.71
2022-07-26T11:19:25.937Z,14.70
2022-07-26T11:21:39.004Z,14.70
2022-07-26T11:23:53.233Z,14.66
2022-07-26T11:26:22.585Z,14.64
2022-07-26T11:28:45.948Z,14.63
2022-07-26T11:31:04.408Z,14.62
2022-07-26T11:33:19.547Z,14.61
2022-07-26T11:35:32.990Z,14.62
2022-07-26T11:38:02.597Z,14.62
2022-07-26T11:40:22.714Z,14.62
2022-07-26T11:42:35.665Z,14.61
2022-07-26T11:44:55.066Z,14.60
2022-07-26T11:47:17.007Z,14.61
2022-07-26T11:52:05.840Z,14.62
2022-07-26T11:54:18.862Z,14.60
2022-07-26T11:56:33.613Z,14.61
2022-07-26T11:58:48.550Z,14.61
2022-07-26T12:01:01.810Z,14.60
2022-07-26T12:03:14.766Z,14.58
2022-07-26T12:05:31.557Z,14.59
2022-07-26T12:07:55.821Z,14.60
2022-07-26T12:10:09.274Z,14.62
2022-07-26T12:12:29.900Z,14.65
2022-07-26T12:14:43.645Z,14.67
2022-07-26T12:16:56.703Z,14.69
2022-07-26T12:19:11.527Z,14.71
2022-07-26T12:21:24.701Z,14.72
2022-07-26T12:23:52.381Z,14.73
2022-07-26T12:26:25.223Z,14.75
2022-07-26T12:28:47.598Z,14.75
2022-07-26T12:31:00.853Z,14.75
2022-07-26T12:33:13.967Z,14.74
2022-07-26T12:35:36.703Z,14.74
2022-07-26T12:37:54.807Z,14.77
2022-07-26T12:40:12.178Z,14.77
2022-07-26T12:42:36.255Z,14.79
2022-07-26T12:44:49.260Z,14.80
2022-07-26T12:47:02.259Z,14.81
2022-07-26T12:49:15.476Z,14.79
2022-07-26T12:51:28.770Z,14.79
2022-07-26T12:53:44.399Z,14.73
2022-07-26T12:55:57.472Z,14.68
2022-07-26T12:58:11.240Z,14.60
2022-07-26T13:00:24.611Z,14.51
2022-07-26T13:02:37.698Z,14.43
2022-07-26T13:04:52.657Z,14.41
2022-07-26T13:07:07.986Z,14.40
2022-07-26T13:09:20.991Z,14.39
2022-07-26T13:11:34.352Z,14.38
2022-07-26T13:13:47.786Z,14.40
2022-07-26T13:16:00.865Z,14.40
2022-07-26T13:18:14.611Z,14.41
2022-07-26T13:20:27.748Z,14.44
2022-07-26T13:22:40.921Z,14.43
2022-07-26T13:24:54.159Z,14.44
2022-07-26T13:27:08.307Z,14.44
2022-07-26T13:29:21.339Z,14.40
2022-07-26T13:31:34.865Z,14.40
2022-07-26T13:33:48.012Z,14.42
2022-07-26T13:36:00.951Z,14.43
2022-07-26T13:38:13.947Z,14.45
2022-07-26T13:40:31.254Z,14.44
2022-07-26T13:42:44.923Z,14.43
2022-07-26T13:44:58.303Z,14.43
2022-07-26T13:47:11.438Z,14.43
2022-07-26T13:49:24.458Z,14.40
2022-07-26T13:51:55.665Z,14.37
2022-07-26T13:54:09.031Z,14.29
2022-07-26T13:56:22.042Z,14.22
2022-07-26T13:58:35.205Z,14.15
2022-07-26T14:00:48.493Z,14.10
2022-07-26T14:03:02.627Z,14.07
2022-07-26T14:05:16.188Z,14.06
2022-07-26T14:07:29.407Z,14.04
2022-07-26T14:09:42.351Z,14.02
2022-07-26T14:11:55.797Z,14.03
2022-07-26T14:14:09.831Z,14.03
2022-07-26T14:16:23.665Z,14.06
2022-07-26T14:18:36.708Z,14.12
2022-07-26T14:20:50.325Z,14.18
2022-07-26T14:23:03.569Z,14.21
2022-07-26T14:25:16.843Z,14.20
2022-07-26T14:27:29.851Z,14.20
2022-07-26T14:29:42.875Z,14.20
2022-07-26T14:31:56.002Z,14.20
2022-07-26T14:34:09.537Z,14.20
2022-07-26T14:36:22.702Z,14.22
2022-07-26T14:38:35.733Z,14.21
2022-07-26T14:40:48.909Z,14.26
2022-07-26T14:43:02.786Z,14.29
2022-07-26T14:45:16.972Z,14.30
2022-07-26T14:47:30.434Z,14.33
2022-07-26T14:49:43.521Z,14.33
2022-07-26T14:51:57.083Z,14.37
2022-07-26T14:54:11.103Z,14.39
2022-07-26T14:56:24.797Z,14.42
2022-07-26T14:58:37.865Z,14.48
2022-07-26T15:00:51.242Z,14.54
2022-07-26T15:03:04.841Z,14.58
2022-07-26T15:05:19.594Z,14.65
2022-07-26T15:07:32.780Z,14.72
2022-07-26T15:09:46.065Z,14.75
2022-07-26T15:11:59.431Z,14.82
2022-07-26T15:14:13.270Z,14.90
2022-07-26T15:16:27.218Z,14.97
2022-07-26T15:18:40.477Z,15.02
2022-07-26T15:20:53.691Z,15.07
2022-07-26T15:23:07.282Z,15.09
2022-07-26T15:25:21.959Z,15.11
2022-07-26T15:27:35.068Z,15.16
2022-07-26T15:29:49.782Z,15.22
2022-07-26T15:32:02.974Z,15.27
2022-07-26T15:34:16.387Z,15.31
2022-07-26T15:36:29.340Z,15.36
2022-07-26T15:38:46.313Z,15.42
2022-07-26T15:40:59.511Z,15.49
2022-07-26T15:43:13.325Z,15.57
2022-07-26T15:45:27.038Z,15.65
2022-07-26T15:48:01.299Z,15.65
2022-07-26T15:50:15.762Z,15.68
2022-07-26T15:52:28.937Z,15.72
2022-07-26T15:54:44.104Z,15.76
2022-07-26T15:56:57.574Z,15.82
2022-07-26T15:59:11.173Z,15.90
2022-07-26T16:01:24.443Z,15.98
2022-07-26T16:03:38.571Z,16.09
2022-07-26T16:05:53.148Z,16.18
2022-07-26T16:08:07.391Z,16.29
2022-07-26T16:10:20.593Z,16.38
2022-07-26T16:12:33.935Z,16.47
2022-07-26T16:14:47.780Z,16.55
2022-07-26T16:17:00.966Z,16.64
2022-07-26T16:19:14.205Z,16.69
2022-07-26T16:21:28.087Z,16.68
2022-07-26T16:23:41.386Z,16.74
2022-07-26T16:25:54.587Z,16.84
2022-07-26T16:28:07.882Z,16.98
2022-07-26T16:30:21.250Z,17.03
2022-07-26T16:32:34.389Z,17.07
2022-07-26T16:34:47.604Z,17.12
2022-07-26T16:37:00.574Z,17.14
2022-07-26T16:39:14.024Z,17.12
2022-07-26T16:41:27.529Z,17.16
2022-07-26T16:43:40.503Z,17.27
2022-07-26T16:45:53.684Z,17.30
2022-07-26T16:48:06.887Z,17.33
2022-07-26T16:50:27.171Z,17.40
2022-07-26T16:52:41.435Z,17.50
2022-07-26T16:54:54.510Z,17.51
2022-07-26T16:57:07.709Z,17.46
2022-07-26T16:59:20.853Z,17.41
2022-07-26T17:01:34.012Z,17.39
2022-07-26T17:03:47.053Z,17.32
2022-07-26T17:06:05.806Z,17.22
2022-07-26T17:08:19.591Z,17.19
2022-07-26T17:10:32.770Z,17.21
2022-07-26T17:12:45.777Z,17.23
2022-07-26T17:15:00.505Z,17.38
2022-07-26T17:17:13.720Z,17.51
2022-07-26T17:19:26.778Z,17.57
2022-07-26T17:21:39.922Z,17.61
2022-07-26T17:23:54.006Z,17.68
2022-07-26T17:26:07.030Z,17.79
2022-07-26T17:28:20.281Z,17.82
2022-07-26T17:30:33.376Z,17.85
2022-07-26T17:32:46.649Z,17.92
2022-07-26T17:34:59.712Z,18.03
2022-07-26T17:37:13.115Z,18.17
2022-07-26T17:39:40.360Z,18.29
2022-07-26T17:42:00.233Z,18.37
2022-07-26T17:44:13.612Z,18.43
2022-07-26T17:46:27.046Z,18.54
2022-07-26T17:48:40.304Z,18.61
2022-07-26T17:50:53.677Z,18.69
2022-07-26T17:53:06.698Z,18.77
2022-07-26T17:55:20.131Z,18.89
2022-07-26T17:57:33.600Z,18.91
2022-07-26T17:59:46.529Z,18.95
2022-07-26T18:01:59.597Z,18.97
2022-07-26T18:04:13.008Z,18.94
2022-07-26T18:06:26.046Z,18.90
2022-07-26T18:08:39.151Z,18.90
2022-07-26T18:10:52.283Z,18.91
2022-07-26T18:13:06.084Z,18.95
2022-07-26T18:15:19.357Z,18.97
2022-07-26T18:17:32.391Z,19.02
2022-07-26T18:19:45.367Z,19.09
2022-07-26T18:22:00.746Z,19.16
2022-07-26T18:24:17.544Z,19.20
2022-07-26T18:26:30.966Z,19.21
2022-07-26T18:28:44.171Z,19.09
2022-07-26T18:31:02.842Z,19.07
2022-07-26T18:33:15.820Z,19.04
2022-07-26T18:35:29.053Z,19.05
2022-07-26T18:37:41.992Z,19.07
2022-07-26T18:39:57.801Z,19.10
2022-07-26T18:42:11.514Z,19.05
2022-07-26T18:44:25.061Z,18.98
2022-07-26T18:46:38.155Z,18.92
2022-07-26T18:48:51.386Z,18.90
2022-07-26T18:51:04.357Z,18.77
2022-07-26T18:53:20.443Z,18.73
2022-07-26T18:55:34.031Z,18.82
2022-07-26T18:57:48.621Z,18.87
2022-07-26T19:00:02.212Z,18.85
2022-07-26T19:02:15.233Z,18.79
2022-07-26T19:04:28.596Z,18.81
2022-07-26T19:06:42.106Z,18.95
2022-07-26T19:08:55.130Z,19.05
2022-07-26T19:11:08.196Z,19.06
2022-07-26T19:13:21.916Z,19.06
2022-07-26T19:15:35.305Z,19.10
2022-07-26T19:17:48.584Z,19.17
2022-07-26T19:20:02.098Z,19.20
2022-07-26T19:22:15.096Z,19.25
2022-07-26T19:24:28.042Z,19.29
2022-07-26T19:26:41.001Z,19.35
2022-07-26T19:28:54.033Z,19.45
2022-07-26T19:31:07.377Z,19.50
2022-07-26T19:33:20.455Z,19.39
2022-07-26T19:35:33.906Z,19.32
2022-07-26T19:37:47.639Z,19.44
2022-07-26T19:40:02.372Z,19.56
2022-07-26T19:42:15.749Z,19.62
2022-07-26T19:44:28.866Z,19.54
2022-07-26T19:46:41.832Z,19.53
2022-07-26T19:48:55.035Z,19.50
2022-07-26T19:51:08.156Z,19.33
2022-07-26T19:53:21.244Z,19.19
2022-07-26T19:55:34.352Z,19.15
2022-07-26T19:57:47.469Z,19.28
2022-07-26T20:00:01.734Z,19.45
2022-07-26T20:02:24.113Z,19.66
2022-07-26T20:04:37.356Z,19.79
2022-07-26T20:06:50.351Z,19.67
2022-07-26T20:09:03.435Z,19.62
2022-07-26T20:11:16.696Z,19.66
2022-07-26T20:13:29.814Z,19.78
2022-07-26T20:15:43.075Z,19.92
2022-07-26T20:17:56.061Z,19.89
2022-07-26T20:20:10.363Z,19.84
2022-07-26T20:22:24.588Z,19.82
2022-07-26T20:24:39.355Z,19.81
2022-07-26T20:26:52.344Z,19.83
2022-07-26T20:29:05.501Z,19.83
2022-07-26T20:31:18.570Z,19.90
2022-07-26T20:33:31.599Z,19.99
2022-07-26T20:35:44.909Z,20.15
2022-07-26T20:37:57.945Z,20.13
2022-07-26T20:40:13.175Z,20.14
2022-07-26T20:42:28.602Z,20.22
2022-07-26T20:44:41.678Z,20.04
2022-07-26T20:46:55.733Z,19.80
2022-07-26T20:49:09.242Z,19.66
2022-07-26T20:51:22.787Z,19.61
2022-07-26T20:53:35.914Z,19.69
2022-07-26T20:55:49.121Z,19.87
2022-07-26T20:58:02.080Z,20.07
2022-07-26T21:00:18.018Z,20.04
2022-07-26T21:02:31.154Z,19.82
2022-07-26T21:04:44.562Z,19.65
2022-07-26T21:06:57.638Z,19.68
2022-07-26T21:09:11.415Z,19.70
2022-07-26T21:11:25.090Z,19.74
2022-07-26T21:13:38.703Z,19.79
2022-07-26T21:15:54.438Z,19.92
2022-07-26T21:18:07.664Z,20.11
2022-07-26T21:20:20.778Z,20.16
2022-07-26T21:22:33.910Z,20.12
2022-07-26T21:24:47.280Z,20.12
2022-07-26T21:27:00.252Z,20.07
2022-07-26T21:29:13.704Z,20.12
2022-07-26T21:31:27.045Z,20.09
2022-07-26T21:33:40.122Z,20.09
2022-07-26T21:35:53.146Z,20.11
2022-07-26T21:38:06.175Z,20.03
2022-07-26T21:40:20.259Z,19.91
2022-07-26T21:42:33.392Z,19.78
2022-07-26T21:44:46.427Z,19.68
2022-07-26T21:46:59.447Z,19.54
2022-07-26T21:49:12.788Z,19.38
2022-07-26T21:51:26.173Z,19.22
2022-07-26T21:53:39.256Z,19.13
2022-07-26T21:55:52.380Z,19.07
2022-07-26T21:58:05.489Z,19.00
2022-07-26T22:00:20.967Z,19.00
2022-07-26T22:02:34.246Z,18.98
2022-07-26T22:04:47.511Z,18.95
2022-07-26T22:07:01.057Z,18.92
2022-07-26T22:09:14.579Z,18.92
2022-07-26T22:11:27.901Z,18.97
2022-07-26T22:13:41.275Z,19.06
2022-07-26T22:15:54.686Z,19.04
2022-07-26T22:18:09.715Z,18.99
2022-07-26T22:20:23.044Z,18.93
2022-07-26T22:22:36.430Z,18.98
2022-07-26T22:24:49.418Z,18.98
2022-07-26T22:27:02.416Z,18.91
2022-07-26T22:29:15.804Z,18.89
2022-07-26T22:31:28.954Z,18.90
2022-07-26T22:33:42.025Z,18.86
2022-07-26T22:35:55.550Z,18.81
2022-07-26T22:38:10.227Z,18.86
2022-07-26T22:40:23.606Z,19.00
2022-07-26T22:42:36.707Z,19.02
2022-07-26T22:44:49.632Z,19.10
2022-07-26T22:47:02.673Z,19.20
2022-07-26T22:49:15.761Z,19.25
2022-07-26T22:51:29.014Z,19.20
2022-07-26T22:53:42.145Z,19.26
2022-07-26T22:55:55.391Z,19.27
2022-07-26T22:58:08.367Z,19.27
2022-07-26T23:00:23.662Z,19.33
2022-07-26T23:02:36.663Z,19.40
2022-07-26T23:04:49.733Z,19.39
2022-07-26T23:07:02.700Z,19.44
2022-07-26T23:09:17.648Z,19.37
2022-07-26T23:11:31.736Z,19.35
2022-07-26T23:13:45.044Z,19.37
2022-07-26T23:16:01.206Z,19.33
2022-07-26T23:18:14.784Z,19.33
2022-07-26T23:20:27.908Z,19.28
2022-07-26T23:22:43.030Z,19.36
2022-07-26T23:24:56.108Z,19.44
2022-07-26T23:27:09.479Z,19.53
2022-07-26T23:29:22.535Z,19.56
2022-07-26T23:31:35.591Z,19.55
2022-07-26T23:33:52.329Z,19.59
2022-07-26T23:36:07.497Z,19.59
2022-07-26T23:38:20.762Z,19.57
2022-07-26T23:40:33.986Z,19.57
2022-07-26T23:42:47.017Z,19.52
2022-07-26T23:44:59.969Z,19.51
2022-07-26T23:47:13.057Z,19.50
2022-07-26T23:49:26.120Z,19.46
2022-07-26T23:51:40.054Z,19.53
2022-07-26T23:53:53.294Z,19.50
2022-07-26T23:56:06.831Z,19.50
2022-07-26T23:58:19.876Z,19.63
